Airfield :
LOGIN :

Register | Disclaimer

   EN    FR    IT 

 










Legend :    VFR   Marginal VFR   IFR   Intensive IFR   Very Intensive IFR
Visi :
Ceiling :
>= 8 km
>= 3000ft
5 to 8 km
1000 to 3000 ft
1500m to 5 km
500 to 1000 ft
800 to 1500m
200 to 500 ft
< 800m
< 200 ft
Symbols :   Thunderstorms  Fog  Heavy snow  Heavy precipitations  Wind > 20 kt
SIGMETs :     Misc.  Thunderstorms  Icing  Turbulence  Mountain Waves  Volcanic Ashes






- Airport Elevation : 461 ft
- IATA code : WIE


ETOU - Wiesbaden Army

CURRENT METAR :
  • 300355Z AUTO 34003KT 8000 -RA OVC028 07/07 A3015 RMK AO2 OVC V BKN CIG 027 RWY25 SLP216 P0002 T00740073 $

EXPIRED METARs :
  • 300335Z AUTO 00000KT 9999 -RA BR BKN026 BKN035 OVC046 07/07 A3015 RMK AO2 CIG 026V035 SLP216 $
  • 300211Z AUTO 00000KT 9999 -RA OVC047 07/07 A3014 RMK AO2 RAB11 SLP212 $
  • 300155Z AUTO 00000KT 9999 OVC046 07/07 A3014 RMK AO2 DZE0054 SLP212 T00740073 $
  • 300056Z AUTO 00000KT 9999 FEW025 OVC042 07/07 A3014 RMK AO2 DZE54 SLP212 $

TAF AMD TAF ETOU
Valid from the 29 at 21:00 until the 01 at 03:00 UTC


292123Z 2921/0103 33006KT 8000 BR SCT025 QNH3014INS
BECMG 3000/3001 33006KT 8000 -RA SCT008 OVC012 QNH3015INS
BECMG 3005/3006 VRB06KT 9999 NSW SCT006 OVC010 QNH3017INS
BECMG 3013/3014 VRB04KT 9000 -RA OVC007 QNH3020INS
BECMG 3017/3018 VRB06KT 9999 NSW SCT005 OVC009 QNH3023INS TX08/3012Z TN06/2921Z LAST NO AMDS AFT 2921 NEXT 3005



MET'MAP, your aeronautical weather chart ! - Copyright ORBIFLY December 2007 - Disclaimer

ORBIFLY MET'MAP TEAM :

Programming & Development : Alexandra Zaïnal
Original concept : Baudouin d'Aumeries
Technical & hardware support : Manuel Goepfert
Assistance : Marc-Olivier Méhu




SOURCES & CREDITS :

   NOAA